Portada
METAR-TAF:

METAR-TAF

Aeroports :

Mécheria, Algèria

latitud: 34-56N, longitud: 000-26W, altitud: 1149 m

Observació

L'informe es va fer fa 1 hora i 44 minuts, a les 20:00 UTC
Vent 18 kt del Oest/Nord-Oest
Temperatura 5°C
Humitat 52%
Pressió 1018 hPa
Visibilitat: 7000 m
Núvols disperses a una alçada de 2600 ft
Núvols disperses a una alçada de 10000 ft

METAR: DAAY 222000Z 29018KT 7000 SCT026 SCT100 05/M04 Q1018

Hora: 22:44 (21:44 UTC)

Pronòstic

L'informe es va fer fa 4 hores i 44 minuts, a les 17:00 UTC
Pronòstic vàlid del 22 a les 18 UTC al 23 a les 03 UTC
Vent 18 kt del Nord-Oest amb ràfegues de 28 kt
Visibilitat: 6000 m
Núvols disperses a una alçada de 2300 ft
Escasses núvols a una alçada de 2600 ft, Cumulus congestus.
Cel ennuvolat a una alçada de 10000 ft
Temporalment
l' 22 a les 18 UTC al 22 a les 24 UTC
Visibilitat: 4000 m
pluja

TAF: DAAY 221700Z 2218/2303 32018G28KT 6000 SCT023 FEW026TCU BKN100 TEMPO 2218/2224 4000 RA

Observacions i pronòstics meteorològics de més de 4000 aeroports (METAR i TAF).

Les estacions disponibles són els punts grocs i vermells al mapa.

Posi el ratolí al punt desitjat per veure el nom de l'estació.

Feu clic per veure les observacions i els pronòstics meteorològics.

Per canviar el mapa: feu clic els botons verds amb una creu de color negre per apropar; al botó verd amb un guió per allunyar la imatge; o en les fletxes verdes per a mapes adjacents.


METAR-TAF: